Impacts METAR Board
IDs:

KDCA - Washington/National, VA, US

Updated at: 0600 UTC 24 Jan 2019
Potential Impact None Slight Moderate High
Time 23/18Z 23/19Z 23/20Z 23/21Z 23/22Z 23/23Z 24/00Z 24/01Z 24/02Z 24/03Z 24/04Z 24/05Z 24/06Z
Temp49 51 49 47 48 48 48 46 49 46 44 51 55
Dewpt29 33 35 36 36 37 37 36 38 37 37 47 50
Altim30.20 30.15 30.11 30.08 30.05 30.03 30.02 29.98 29.95 29.92 29.90 29.86 29.81
VIS10 10 10 10 10 10 10 10 10 10 10 10 10
CIG48 230 230 70 250 60 60 36 28 28 23 21 18
CoverOVCOVCOVCBKNBKNBKNOVCBKNOVCOVCOVCOVCOVC
FltCatVFRVFRVFRVFRVFRVFRVFRVFRMVFRMVFRMVFRMVFRMVFR
WX-------------------------RA
WDir2002001901801801902001902900190190170
WSpd16 14 11 10 8 8 5 5 3 0 3 11 12
WGst-- 19 -- -- -- -- -- -- -- -- -- -- --
Raw hourly METARs
KDCA 231752Z 20016KT 10SM FEW030 BKN048 OVC230 09/M02 A3020 RMK AO2 SLP227 T00941017 10094 20011 58035
KDCA 231852Z 20014G19KT 10SM SCT040 SCT130 OVC230 11/01 A3015 RMK AO2 SLP208 T01060006
KDCA 231952Z 19011KT 10SM SCT045 SCT140 OVC230 09/02 A3011 RMK AO2 SLP194 T00940017
KDCA 232052Z 18010KT 10SM BKN070 BKN250 08/02 A3008 RMK AO2 SLP185 T00830022 56042
KDCA 232152Z 18008KT 10SM SCT065 BKN250 09/02 A3005 RMK AO2 SLP175 T00890022
KDCA 232252Z 19008KT 10SM BKN060 BKN250 09/03 A3003 RMK AO2 SLP168 T00890028
KDCA 232352Z 20005KT 10SM OVC060 09/03 A3002 RMK AO2 SLP164 T00890028 10111 20072 56021
KDCA 240052Z 19005KT 10SM BKN036 BKN050 08/02 A2998 RMK AO2 SLP150 T00780022
KDCA 240152Z 29003KT 10SM OVC028 09/03 A2995 RMK AO2 SLP142 T00940033
KDCA 240252Z 00000KT 10SM BKN028 BKN033 OVC045 08/03 A2992 RMK AO2 SLP131 T00780028 55011
KDCA 240352Z 19003KT 10SM OVC023 07/03 A2990 RMK AO2 SLP125 T00670028
KDCA 240452Z 19011KT 10SM OVC021 11/08 A2986 RMK AO2 RAB05E16 SLP111 P0000 T01060083 401111006
KDCA 240552Z 17012KT 10SM -RA BKN018 BKN026 OVC035 13/10 A2981 RMK AO2 RAB39 SLP093 P0000 60000 T01280100 10128 20067 58038



Page loaded:  06:06 UTC  |   10:06 PM Pacific  |   11:06 PM Mountain  |   12:06 AM Central  |   01:06 AM Eastern

 

ADVISORIES

FORECASTS

FORECASTS

OBSERVATIONS

USER TOOLS

ABOUT US